Time;durP1;ratioP1;P1;durP2;ratioP2;P2;SDS_P1;SDS_P2;PMS_P1;PMS_P2;Temp;Humidity;BMP_temperature;BMP_pressure;BME280_temperature;BME280_humidity;BME280_pressure;Samples;Min_cycle;Max_cycle;Signal;HPM_P1;HPM_P2
2022/09/29 00:00:55;;;;;;;4.50;2.37;;;;;;;8.79;100.00;94819.63;5038463;28;20255;-69
2022/09/29 00:03:22;;;;;;;4.13;2.50;;;;;;;8.74;100.00;94818.63;5038066;28;20200;-68
2022/09/29 00:05:50;;;;;;;4.27;2.60;;;;;;;8.78;100.00;94820.66;5039340;28;20216;-69
2022/09/29 00:08:20;;;;;;;6.53;2.60;;;;;;;8.86;100.00;94820.47;5037789;28;20290;-69
2022/09/29 00:10:47;;;;;;;4.47;2.30;;;;;;;8.79;100.00;94814.38;5034163;28;20221;-69
2022/09/29 00:13:15;;;;;;;4.67;2.30;;;;;;;8.81;100.00;94811.59;5038037;28;20681;-69
2022/09/29 00:15:42;;;;;;;4.03;2.20;;;;;;;8.79;100.00;94814.38;5038805;28;20211;-68
2022/09/29 00:18:10;;;;;;;6.67;2.53;;;;;;;8.75;100.00;94810.53;5037959;28;20205;-69
2022/09/29 00:20:37;;;;;;;5.87;2.50;;;;;;;8.83;100.00;94809.56;5038065;28;20217;-69
2022/09/29 00:23:04;;;;;;;3.83;2.20;;;;;;;8.75;100.00;94807.91;5037853;28;20310;-69
2022/09/29 00:25:32;;;;;;;3.07;2.20;;;;;;;8.86;100.00;94814.38;5038132;28;20219;-69
2022/09/29 00:27:58;;;;;;;4.10;2.33;;;;;;;8.80;100.00;94805.50;5038406;28;20204;-68
2022/09/29 00:30:25;;;;;;;3.30;2.13;;;;;;;8.81;100.00;94807.13;5037971;28;20221;-69
2022/09/29 00:32:52;;;;;;;5.03;1.90;;;;;;;8.81;100.00;94804.50;5036928;28;20240;-69
2022/09/29 00:35:18;;;;;;;3.63;2.27;;;;;;;8.73;100.00;94804.72;5038092;28;20201;-69
2022/09/29 00:37:45;;;;;;;7.10;2.30;;;;;;;8.79;100.00;94809.13;5037747;28;20240;-69
2022/09/29 00:40:12;;;;;;;4.43;2.90;;;;;;;8.65;100.00;94804.88;5037505;28;20251;-69
2022/09/29 00:42:40;;;;;;;6.10;3.07;;;;;;;8.69;100.00;94808.75;5036856;28;20201;-69
2022/09/29 00:45:17;;;;;;;4.23;2.50;;;;;;;8.70;100.00;94805.09;5038258;28;20205;-69
2022/09/29 00:47:47;;;;;;;2.67;2.03;;;;;;;8.67;100.00;94810.75;5037330;28;20848;-69
2022/09/29 00:50:19;;;;;;;3.27;2.10;;;;;;;8.69;100.00;94803.50;5037289;28;20728;-69
2022/09/29 00:52:51;;;;;;;2.90;2.00;;;;;;;8.67;100.00;94809.94;5036888;28;20223;-69
2022/09/29 00:55:23;;;;;;;4.83;2.43;;;;;;;8.70;100.00;94802.47;5037758;28;20208;-69
2022/09/29 00:57:59;;;;;;;2.60;1.80;;;;;;;8.68;100.00;94804.50;5036974;28;20287;-69
2022/09/29 01:00:25;;;;;;;3.20;2.27;;;;;;;8.70;100.00;94801.66;5037583;28;20239;-69
2022/09/29 01:02:56;;;;;;;4.80;2.60;;;;;;;8.81;100.00;94801.88;5036955;28;20204;-69
2022/09/29 01:05:28;;;;;;;5.33;2.57;;;;;;;8.79;100.00;94797.84;5037592;28;20197;-69
2022/09/29 01:07:55;;;;;;;5.57;2.60;;;;;;;8.74;100.00;94808.91;5037612;28;20612;-69
2022/09/29 01:10:23;;;;;;;4.33;2.07;;;;;;;8.75;100.00;94802.66;5037856;28;20236;-69
2022/09/29 01:12:51;;;;;;;6.43;2.50;;;;;;;8.80;100.00;94800.25;5032583;28;20236;-69
2022/09/29 01:15:20;;;;;;;7.00;2.80;;;;;;;8.81;100.00;94791.38;5036775;28;20967;-69
2022/09/29 01:17:48;;;;;;;4.93;2.40;;;;;;;8.73;100.00;94796.81;5037978;28;20537;-69
2022/09/29 01:20:17;;;;;;;4.63;2.57;;;;;;;8.76;100.00;94788.53;5036646;28;20860;-69
2022/09/29 01:23:14;;;;;;;5.00;2.70;;;;;;;8.93;100.00;94788.94;5036119;28;20204;-69
2022/09/29 01:26:01;;;;;;;4.20;2.57;;;;;;;8.90;100.00;94795.41;5037661;28;20574;-69
2022/09/29 01:28:59;;;;;;;3.90;2.23;;;;;;;8.95;100.00;94790.38;5037034;28;20201;-69
2022/09/29 01:31:34;;;;;;;4.60;2.30;;;;;;;8.98;100.00;94787.31;5034610;28;20215;-69
2022/09/29 01:34:07;;;;;;;5.40;2.90;;;;;;;8.94;100.00;94793.22;5035846;28;20768;-69
2022/09/29 01:36:41;;;;;;;5.40;2.43;;;;;;;8.93;100.00;94784.50;5036866;28;20224;-69
2022/09/29 01:39:17;;;;;;;3.50;2.33;;;;;;;8.97;100.00;94788.34;5036634;28;20689;-69
2022/09/29 01:41:50;;;;;;;3.13;2.07;;;;;;;8.95;100.00;94781.66;5037165;28;20197;-69
2022/09/29 01:44:23;;;;;;;5.43;2.70;;;;;;;8.91;100.00;94783.91;5035885;28;21144;-69
2022/09/29 01:46:55;;;;;;;5.80;2.70;;;;;;;8.93;100.00;94778.44;5036225;28;20209;-69
2022/09/29 01:49:25;;;;;;;10.87;2.93;;;;;;;8.80;100.00;94781.88;5036659;28;20235;-69
2022/09/29 01:51:55;;;;;;;7.83;3.30;;;;;;;8.80;100.00;94781.88;5036496;28;20684;-68
2022/09/29 01:54:27;;;;;;;4.73;2.67;;;;;;;8.82;100.00;94776.41;5035635;28;20221;-69
2022/09/29 01:57:00;;;;;;;4.00;2.40;;;;;;;8.80;100.00;94787.13;5036508;28;20203;-69
2022/09/29 01:59:33;;;;;;;9.63;2.60;;;;;;;8.83;100.00;94793.78;5037019;28;20225;-69
2022/09/29 02:02:07;;;;;;;3.70;2.30;;;;;;;8.82;100.00;94784.28;5036523;28;20221;-69
2022/09/29 02:04:40;;;;;;;3.97;2.23;;;;;;;8.77;100.00;94784.91;5035689;28;20197;-69
2022/09/29 02:07:12;;;;;;;3.67;2.30;;;;;;;8.78;100.00;94785.69;5032498;28;20215;-69
2022/09/29 02:09:43;;;;;;;4.17;2.50;;;;;;;8.68;100.00;94785.28;5036231;28;20221;-69
2022/09/29 02:12:15;;;;;;;5.87;2.80;;;;;;;8.67;100.00;94784.50;5032928;28;20209;-69
2022/09/29 02:14:45;;;;;;;2.93;1.80;;;;;;;8.69;100.00;94787.75;5036148;28;20583;-69
2022/09/29 02:17:18;;;;;;;3.63;2.30;;;;;;;8.72;100.00;94776.81;5036608;28;20201;-69
2022/09/29 02:19:46;;;;;;;4.17;2.23;;;;;;;8.65;100.00;94786.50;5036386;28;20243;-69
2022/09/29 02:22:14;;;;;;;3.03;1.97;;;;;;;8.55;100.00;94780.84;5036248;28;20728;-69
2022/09/29 02:24:40;;;;;;;4.77;2.67;;;;;;;8.46;100.00;94781.22;5035953;28;20625;-69
2022/09/29 02:27:07;;;;;;;3.03;1.90;;;;;;;8.56;100.00;94792.94;5035949;28;20668;-69
2022/09/29 02:29:36;;;;;;;5.70;2.50;;;;;;;8.46;100.00;94791.72;5036432;28;20228;-69
2022/09/29 02:32:03;;;;;;;4.40;2.50;;;;;;;8.37;100.00;94789.50;5039507;28;20681;-69
2022/09/29 02:34:33;;;;;;;4.40;2.50;;;;;;;8.41;100.00;94802.00;5038916;28;20717;-69
2022/09/29 02:37:05;;;;;;;4.23;2.90;;;;;;;8.43;100.00;94801.81;5039347;28;20666;-69
2022/09/29 02:39:42;;;;;;;5.40;2.77;;;;;;;8.47;100.00;94792.53;5040714;28;20228;-69
2022/09/29 02:42:21;;;;;;;3.70;2.30;;;;;;;8.40;100.00;94791.69;5039647;28;20209;-69
2022/09/29 02:44:59;;;;;;;6.83;2.20;;;;;;;8.45;100.00;94789.28;5040009;28;20201;-69
2022/09/29 02:48:12;;;;;;;4.07;2.17;;;;;;;8.52;100.00;94781.22;5040030;28;20201;-69
2022/09/29 02:51:10;;;;;;;3.50;2.00;;;;;;;8.55;100.00;94772.97;4977460;28;20227;-69
2022/09/29 02:53:51;;;;;;;3.20;1.97;;;;;;;8.48;100.00;94774.75;5036894;28;20709;-69
2022/09/29 02:56:26;;;;;;;3.30;1.80;;;;;;;8.44;100.00;94767.50;5039739;28;20201;-69
2022/09/29 02:59:00;;;;;;;3.47;2.30;;;;;;;8.38;100.00;94768.28;5039207;28;20201;-69
2022/09/29 03:01:30;;;;;;;4.07;2.40;;;;;;;8.31;100.00;94767.47;5038793;28;20873;-69
2022/09/29 03:03:57;;;;;;;5.13;2.90;;;;;;;8.26;100.00;94769.88;5038116;28;20658;-69
2022/09/29 03:06:25;;;;;;;4.23;2.17;;;;;;;8.33;100.00;94765.44;5038381;28;20209;-69
2022/09/29 03:08:51;;;;;;;4.57;2.50;;;;;;;8.21;100.00;94766.22;5038819;28;20220;-69
2022/09/29 03:11:18;;;;;;;4.00;2.43;;;;;;;8.08;100.00;94759.13;5036875;28;20205;-68
2022/09/29 03:13:44;;;;;;;6.03;2.23;;;;;;;8.05;100.00;94756.88;5037951;28;20911;-69
2022/09/29 03:16:11;;;;;;;6.17;2.57;;;;;;;8.06;100.00;94757.69;5038851;28;20557;-69
2022/09/29 03:18:37;;;;;;;4.43;2.30;;;;;;;8.05;100.00;94761.31;5038795;28;20689;-69
2022/09/29 03:21:04;;;;;;;7.07;2.50;;;;;;;8.18;100.00;94756.13;5038345;28;20229;-69
2022/09/29 03:23:32;;;;;;;3.87;2.20;;;;;;;8.15;100.00;94762.56;5037611;28;20212;-69
2022/09/29 03:25:58;;;;;;;4.63;2.47;;;;;;;8.12;100.00;94764.75;5038658;28;20236;-68
2022/09/29 03:28:25;;;;;;;6.47;2.93;;;;;;;8.05;100.00;94761.31;5038704;28;20212;-69
2022/09/29 03:30:54;;;;;;;4.70;2.30;;;;;;;8.08;100.00;94763.53;5037795;28;20823;-69
2022/09/29 03:33:20;;;;;;;4.70;2.43;;;;;;;8.13;100.00;94755.88;5037674;28;20266;-69
2022/09/29 03:35:47;;;;;;;4.60;2.40;;;;;;;8.00;100.00;94750.59;5038304;28;20204;-69
2022/09/29 03:38:14;;;;;;;5.13;2.80;;;;;;;7.97;100.00;94757.03;5037848;28;20197;-69
2022/09/29 03:40:42;;;;;;;5.03;2.83;;;;;;;7.99;100.00;94762.91;5038180;28;20225;-69
2022/09/29 03:43:08;;;;;;;4.20;2.50;;;;;;;8.05;100.00;94762.09;5038114;28;20197;-69
2022/09/29 03:45:35;;;;;;;8.07;3.00;;;;;;;8.09;100.00;94768.56;5038182;28;20212;-69
2022/09/29 03:48:01;;;;;;;3.77;2.07;;;;;;;8.05;100.00;94761.31;5037529;28;20213;-69
2022/09/29 03:50:28;;;;;;;4.83;2.37;;;;;;;8.08;100.00;94763.53;5038400;28;20721;-69
2022/09/29 03:52:54;;;;;;;4.93;2.43;;;;;;;7.98;100.00;94761.28;5037273;28;20198;-69
2022/09/29 03:55:21;;;;;;;7.37;2.80;;;;;;;7.95;100.00;94768.72;5037176;28;20935;-69
2022/09/29 03:57:49;;;;;;;11.60;2.70;;;;;;;7.95;100.00;94766.91;5038397;28;20210;-69
2022/09/29 04:00:15;;;;;;;4.50;2.50;;;;;;;7.97;100.00;94774.59;5037571;28;20228;-69
2022/09/29 04:02:42;;;;;;;5.53;2.70;;;;;;;8.02;100.00;94766.97;5036503;28;20325;-69
2022/09/29 04:05:09;;;;;;;5.07;2.43;;;;;;;8.03;100.00;94773.81;5037729;28;20661;-69
2022/09/29 04:07:35;;;;;;;4.40;2.40;;;;;;;8.07;100.00;94775.03;5037790;28;20205;-69
2022/09/29 04:10:02;;;;;;;5.27;2.70;;;;;;;8.05;100.00;94771.81;5037494;28;20221;-69
2022/09/29 04:12:28;;;;;;;5.27;2.40;;;;;;;8.01;100.00;94770.59;5034766;28;20470;-69
2022/09/29 04:14:56;;;;;;;7.77;2.63;;;;;;;8.15;100.00;94769.66;5037793;28;20587;-69
2022/09/29 04:17:23;;;;;;;6.30;2.83;;;;;;;8.11;100.00;94765.78;5036884;28;20227;-68
2022/09/29 04:19:49;;;;;;;3.93;2.30;;;;;;;8.05;100.00;94766.56;5036213;28;20677;-69
2022/09/29 04:22:17;;;;;;;4.27;2.30;;;;;;;8.04;100.00;94770.19;5037103;28;20209;-69
2022/09/29 04:24:44;;;;;;;3.50;2.23;;;;;;;8.05;100.00;94761.31;5037300;28;20208;-69
2022/09/29 04:27:10;;;;;;;4.00;2.57;;;;;;;8.07;100.00;94756.66;5037296;28;20201;-69
2022/09/29 04:29:37;;;;;;;5.93;2.40;;;;;;;8.16;100.00;94771.25;5036803;28;20479;-69
2022/09/29 04:32:05;;;;;;;3.50;1.97;;;;;;;8.24;100.00;94766.63;5038006;28;20216;-69
2022/09/29 04:34:32;;;;;;;5.07;2.53;;;;;;;8.08;100.00;94763.53;5037388;28;20221;-69
2022/09/29 04:36:59;;;;;;;4.07;2.47;;;;;;;8.09;100.00;94775.66;5038005;28;20216;-68
2022/09/29 04:39:25;;;;;;;8.20;3.30;;;;;;;8.16;100.00;94776.50;5037880;28;20531;-68
2022/09/29 04:41:52;;;;;;;6.23;3.33;;;;;;;8.25;100.00;94772.69;5038180;28;20212;-68
2022/09/29 04:44:21;;;;;;;5.13;3.07;;;;;;;8.37;100.00;94776.38;5036539;28;20658;-69
2022/09/29 04:46:49;;;;;;;6.27;3.20;;;;;;;8.47;100.00;94771.53;5037201;28;20212;-69
2022/09/29 04:49:17;;;;;;;4.40;2.47;;;;;;;8.48;100.00;94773.97;5037574;28;20244;-69
2022/09/29 04:51:43;;;;;;;4.00;2.37;;;;;;;8.40;100.00;94765.47;5037044;28;20202;-69
2022/09/29 04:54:10;;;;;;;4.53;2.43;;;;;;;8.46;100.00;94762.03;5035875;28;20235;-69
2022/09/29 04:56:36;;;;;;;7.23;3.70;;;;;;;8.41;100.00;94751.34;5037595;28;20205;-69
2022/09/29 04:59:03;;;;;;;6.43;3.60;;;;;;;8.32;100.00;94755.94;5037605;28;20215;-69
2022/09/29 05:01:30;;;;;;;10.10;4.00;;;;;;;8.24;100.00;94750.09;5037474;28;20211;-69
2022/09/29 05:03:57;;;;;;;8.70;3.53;;;;;;;8.29;100.00;94752.94;5036127;28;20205;-69
2022/09/29 05:06:24;;;;;;;9.60;4.27;;;;;;;8.40;100.00;94754.97;5037346;28;20205;-69
2022/09/29 05:08:51;;;;;;;10.93;5.10;;;;;;;8.43;100.00;94755.38;5037898;28;20201;-69
2022/09/29 05:11:18;;;;;;;9.07;4.20;;;;;;;8.47;100.00;94759.22;5035071;28;20208;-69
2022/09/29 05:13:44;;;;;;;13.50;4.40;;;;;;;8.46;100.00;94752.34;5036632;28;20205;-69
2022/09/29 05:16:11;;;;;;;8.67;4.17;;;;;;;8.50;100.00;94759.63;5037117;28;20224;-69
2022/09/29 05:18:37;;;;;;;11.43;4.77;;;;;;;8.61;100.00;94752.97;5036678;28;20227;-69
2022/09/29 05:21:04;;;;;;;11.33;4.80;;;;;;;8.63;100.00;94772.78;5037213;28;20690;-69
2022/09/29 05:23:32;;;;;;;8.90;4.50;;;;;;;8.65;100.00;94776.00;5036202;28;20205;-69
2022/09/29 05:26:01;;;;;;;9.23;4.43;;;;;;;8.69;100.00;94779.03;5036732;28;20201;-69
2022/09/29 05:28:28;;;;;;;8.43;4.40;;;;;;;8.37;100.00;94768.50;5037019;28;20262;-69
2022/09/29 05:30:54;;;;;;;6.93;3.50;;;;;;;8.37;100.00;94776.38;5037072;28;20223;-68
2022/09/29 05:33:21;;;;;;;8.13;4.13;;;;;;;8.37;100.00;94769.28;5035925;28;20213;-68
2022/09/29 05:35:47;;;;;;;7.53;3.43;;;;;;;8.39;100.00;94771.72;5036627;28;20217;-68
2022/09/29 05:38:15;;;;;;;8.43;3.77;;;;;;;8.39;100.00;94769.09;5037069;28;20197;-67
2022/09/29 05:40:43;;;;;;;6.83;3.47;;;;;;;8.53;100.00;94772.34;5036972;28;20228;-68
2022/09/29 05:43:09;;;;;;;6.50;3.50;;;;;;;8.57;100.00;94776.19;5036269;28;20221;-68
2022/09/29 05:45:36;;;;;;;7.50;3.73;;;;;;;8.67;100.00;94784.50;5036629;28;20208;-68
2022/09/29 05:48:02;;;;;;;8.90;3.63;;;;;;;8.69;100.00;94779.84;5037202;28;20209;-68
2022/09/29 05:50:31;;;;;;;7.90;3.80;;;;;;;8.78;100.00;94775.19;5036513;28;20236;-69
2022/09/29 05:53:02;;;;;;;6.80;3.40;;;;;;;8.90;100.00;94771.78;5036110;28;20205;-69
2022/09/29 05:55:29;;;;;;;8.53;4.27;;;;;;;8.83;100.00;94776.22;5036310;28;20224;-69
2022/09/29 05:57:57;;;;;;;7.43;3.80;;;;;;;8.93;100.00;94775.81;5037132;28;20215;-69
2022/09/29 06:00:23;;;;;;;8.27;3.70;;;;;;;8.86;100.00;94775.00;5036463;28;20255;-69
2022/09/29 06:02:50;;;;;;;8.07;3.80;;;;;;;8.91;100.00;94790.97;5036208;28;20205;-69
2022/09/29 06:05:16;;;;;;;7.00;3.73;;;;;;;8.93;100.00;94789.75;5038446;28;20222;-69
2022/09/29 06:07:43;;;;;;;10.23;3.87;;;;;;;8.96;100.00;94791.16;5040377;28;20205;-69
2022/09/29 06:10:09;;;;;;;9.87;3.90;;;;;;;9.06;100.00;94787.13;5040287;28;20232;-69
2022/09/29 06:12:37;;;;;;;8.13;3.83;;;;;;;9.13;100.00;94785.31;5036922;28;20201;-69
2022/09/29 06:15:06;;;;;;;6.53;3.47;;;;;;;9.22;100.00;94790.16;5040576;28;20235;-69
2022/09/29 06:17:33;;;;;;;17.00;4.27;;;;;;;9.18;100.00;94783.69;5041205;28;20201;-69
2022/09/29 06:20:00;;;;;;;9.13;3.57;;;;;;;9.18;100.00;94788.16;5040089;28;20326;-69
2022/09/29 06:22:27;;;;;;;10.13;3.50;;;;;;;9.17;100.00;94786.53;5039788;28;20205;-69
2022/09/29 06:24:53;;;;;;;6.23;3.33;;;;;;;9.18;100.00;94785.53;5040378;28;20255;-69
2022/09/29 06:27:20;;;;;;;7.43;3.37;;;;;;;9.20;100.00;94786.09;5040346;28;20216;-68
2022/09/29 06:29:46;;;;;;;9.40;3.93;;;;;;;9.22;100.00;94779.63;5040052;28;20224;-68
2022/09/29 06:32:14;;;;;;;6.83;3.57;;;;;;;9.32;100.00;94780.03;5039612;28;20578;-69
2022/09/29 06:37:33;;;;;;;7.20;3.77;;;;;;;9.28;100.00;94783.28;5039671;28;20229;-68
2022/09/29 06:37:42;;;;;;;8.47;3.77;;;;;;;9.42;100.00;94785.69;5039644;28;20295;-68
2022/09/29 06:40:10;;;;;;;6.03;3.17;;;;;;;9.52;100.00;94785.25;5040071;28;20339;-68
2022/09/29 06:42:37;;;;;;;6.63;3.37;;;;;;;9.52;100.00;94786.06;5039235;28;20674;-68
2022/09/29 06:45:04;;;;;;;7.13;3.40;;;;;;;9.57;100.00;94788.06;5040044;28;20201;-68
2022/09/29 06:47:32;;;;;;;6.43;3.10;;;;;;;9.71;100.00;94786.03;5040449;28;20208;-68
2022/09/29 06:50:01;;;;;;;6.23;3.37;;;;;;;9.68;100.00;94784.81;5039573;28;20229;-68
2022/09/29 06:52:28;;;;;;;6.30;3.10;;;;;;;9.75;100.00;94784.59;5038388;28;20220;-68
2022/09/29 06:54:55;;;;;;;7.33;3.80;;;;;;;9.70;100.00;94786.25;5040245;28;20282;-68
2022/09/29 06:57:21;;;;;;;7.17;3.90;;;;;;;9.78;100.00;94786.81;5039743;28;20212;-69
2022/09/29 06:59:48;;;;;;;8.40;4.00;;;;;;;9.82;100.00;94782.75;5039491;28;20239;-69
2022/09/29 07:02:14;;;;;;;8.07;4.07;;;;;;;9.93;100.00;94790.00;5039307;28;20201;-68
2022/09/29 07:04:42;;;;;;;7.00;3.63;;;;;;;10.12;100.00;94783.91;5039279;28;20216;-68
2022/09/29 07:07:08;;;;;;;8.67;4.63;;;;;;;10.02;100.00;94780.88;5039628;28;20580;-68
2022/09/29 07:09:35;;;;;;;10.77;4.77;;;;;;;10.22;100.00;94781.63;5039465;28;20221;-68
2022/09/29 07:12:02;;;;;;;8.27;3.97;;;;;;;10.35;100.00;94779.72;5036602;28;20378;-69
2022/09/29 07:14:28;;;;;;;6.77;3.73;;;;;;;10.42;100.00;94792.84;5038496;28;20221;-69
2022/09/29 07:16:55;;;;;;;6.97;3.70;;;;;;;10.53;100.00;94800.09;5038525;28;20205;-70
2022/09/29 07:19:21;;;;;;;7.80;3.90;;;;;;;10.70;100.00;94795.94;5039627;28;20225;-70
2022/09/29 07:21:50;;;;;;;6.23;3.30;;;;;;;10.85;100.00;94799.88;5039731;28;20205;-70
2022/09/29 07:24:17;;;;;;;6.70;3.73;;;;;;;10.86;100.00;94796.22;5038730;28;20209;-70
2022/09/29 07:26:44;;;;;;;6.73;3.50;;;;;;;10.84;100.00;94794.84;5039381;28;20217;-70
2022/09/29 07:29:11;;;;;;;8.93;4.23;;;;;;;10.88;100.00;94798.66;5039648;28;20205;-68
2022/09/29 07:31:39;;;;;;;6.27;3.63;;;;;;;10.79;100.00;94797.28;5039417;28;20220;-68
2022/09/29 07:34:05;;;;;;;7.63;3.60;;;;;;;10.72;100.00;94796.53;5038322;28;20201;-70
2022/09/29 07:36:32;;;;;;;7.20;3.57;;;;;;;10.60;100.00;94796.41;5039333;28;20232;-69
2022/09/29 07:39:00;;;;;;;9.20;4.20;;;;;;;10.62;100.00;94798.81;5039211;28;20208;-68
2022/09/29 07:41:26;;;;;;;8.00;4.40;;;;;;;10.71;100.00;94800.97;5038945;28;20208;-69
2022/09/29 07:43:53;;;;;;;6.77;4.17;;;;;;;10.70;100.00;94803.84;5038095;28;20216;-69
2022/09/29 07:46:19;;;;;;;7.73;3.93;;;;;;;10.69;100.00;94803.03;5039012;28;20212;-70
2022/09/29 07:48:46;;;;;;;8.07;3.93;;;;;;;10.73;100.00;94806.03;5038337;28;20209;-69
2022/09/29 07:51:14;;;;;;;7.77;4.47;;;;;;;10.70;100.00;94801.19;5038910;28;20225;-70
2022/09/29 07:53:41;;;;;;;7.97;4.30;;;;;;;10.72;100.00;94799.19;5037940;28;20216;-69
2022/09/29 07:56:10;;;;;;;9.13;4.10;;;;;;;10.73;100.00;94809.50;5038620;28;21107;-69
2022/09/29 07:58:37;;;;;;;8.63;4.17;;;;;;;10.67;100.00;94809.53;5038554;28;20201;-68
2022/09/29 08:01:09;;;;;;;7.50;3.63;;;;;;;10.71;100.00;94811.53;5038377;28;20232;-70
2022/09/29 08:03:36;;;;;;;6.77;3.83;;;;;;;10.84;100.00;94811.44;5037515;28;20344;-70
2022/09/29 08:06:03;;;;;;;8.30;4.27;;;;;;;10.91;100.00;94814.84;5038394;28;20650;-70
2022/09/29 08:08:29;;;;;;;8.40;4.57;;;;;;;10.97;100.00;94808.72;5038986;28;20201;-70
2022/09/29 08:11:02;;;;;;;8.23;3.60;;;;;;;11.12;100.00;94807.38;5035178;28;20324;-68
2022/09/29 08:13:31;;;;;;;7.67;4.00;;;;;;;11.09;100.00;94810.44;5037862;28;20209;-68
2022/09/29 08:15:59;;;;;;;6.77;3.57;;;;;;;11.02;100.00;94804.44;5038243;28;20229;-68
2022/09/29 08:18:25;;;;;;;6.80;4.00;;;;;;;10.91;100.00;94811.38;5038129;28;20209;-69
2022/09/29 08:20:53;;;;;;;8.37;3.70;;;;;;;10.97;100.00;94812.16;5038197;28;21307;-69
2022/09/29 08:23:19;;;;;;;6.90;3.47;;;;;;;10.97;100.00;94814.81;5037941;28;20597;-69
2022/09/29 08:25:46;;;;;;;7.27;3.93;;;;;;;10.97;100.00;94817.44;5038177;28;20197;-69
2022/09/29 08:28:13;;;;;;;7.80;3.93;;;;;;;10.93;100.00;94819.91;5037551;28;20355;-68
2022/09/29 08:30:41;;;;;;;8.20;3.93;;;;;;;11.07;100.00;94827.50;5038376;28;20229;-69
2022/09/29 08:33:11;;;;;;;10.27;4.27;;;;;;;10.82;100.00;94831.94;5036694;28;20671;-70
2022/09/29 08:35:38;;;;;;;5.93;3.97;;;;;;;10.91;100.00;94829.84;5036863;28;20788;-69
2022/09/29 08:38:04;;;;;;;7.73;4.47;;;;;;;11.08;100.00;94837.81;5038584;28;21063;-70
2022/09/29 08:40:31;;;;;;;7.07;4.40;;;;;;;11.12;100.00;94839.00;5037775;28;20225;-70
2022/09/29 08:43:05;;;;;;;8.83;4.47;;;;;;;11.10;100.00;94841.06;5036941;28;20209;-70
2022/09/29 08:45:37;;;;;;;7.83;4.03;;;;;;;11.15;100.00;94849.16;5037052;28;20208;-68
2022/09/29 08:48:10;;;;;;;9.10;4.30;;;;;;;11.26;100.00;94848.44;5037334;28;20209;-68
2022/09/29 08:50:43;;;;;;;6.87;3.73;;;;;;;11.22;100.00;94852.53;5036921;28;20244;-68
2022/09/29 08:53:14;;;;;;;8.43;4.23;;;;;;;11.24;100.00;94853.13;5035190;28;20688;-69
2022/09/29 08:55:47;;;;;;;9.37;4.03;;;;;;;11.26;100.00;94856.34;5035910;28;20775;-69
2022/09/29 08:58:16;;;;;;;8.60;4.70;;;;;;;11.35;100.00;94859.53;5037669;28;20209;-68
2022/09/29 09:00:48;;;;;;;7.97;4.27;;;;;;;11.36;100.00;94864.59;5037577;28;20228;-68
2022/09/29 09:03:29;;;;;;;6.60;3.90;;;;;;;11.31;100.00;94859.16;5037203;28;20205;-68
2022/09/29 09:06:17;;;;;;;7.67;4.40;;;;;;;11.44;100.00;94864.31;5037262;28;20286;-68
2022/09/29 09:09:14;;;;;;;8.90;4.80;;;;;;;11.66;100.00;94866.41;5037255;28;20299;-69
2022/09/29 09:11:56;;;;;;;7.13;4.10;;;;;;;11.40;100.00;94860.50;5034465;28;20935;-69
2022/09/29 09:14:39;;;;;;;7.27;3.80;;;;;;;11.54;100.00;94869.97;5036627;28;20215;-69
2022/09/29 09:17:22;;;;;;;7.67;3.93;;;;;;;11.63;100.00;94863.38;5037223;28;20220;-69
2022/09/29 09:20:26;;;;;;;7.37;3.97;;;;;;;11.74;100.00;94858.22;5036967;28;20225;-69
2022/09/29 09:22:56;;;;;;;7.40;3.90;;;;;;;11.79;100.00;94865.50;5036416;28;20204;-68
2022/09/29 09:25:30;;;;;;;6.83;3.77;;;;;;;11.84;100.00;94863.00;5037686;28;20268;-69
2022/09/29 09:28:04;;;;;;;7.43;3.90;;;;;;;11.92;100.00;94866.16;5035753;28;20205;-69
2022/09/29 09:30:37;;;;;;;7.70;4.10;;;;;;;12.09;100.00;94861.13;5036776;28;20225;-69
2022/09/29 09:33:16;;;;;;;6.17;3.73;;;;;;;12.22;100.00;94865.25;5036420;28;20215;-69
2022/09/29 09:35:49;;;;;;;8.27;3.77;;;;;;;12.17;100.00;94864.28;5037066;28;20213;-69
2022/09/29 09:38:20;;;;;;;6.18;3.58;;;;;;;12.47;98.37;94865.16;5035139;28;20684;-69
2022/09/29 09:40:50;;;;;;;6.67;3.40;;;;;;;12.68;98.89;94857.59;5036521;28;20225;-68
2022/09/29 09:43:21;;;;;;;6.63;3.60;;;;;;;12.78;95.36;94857.88;5036465;28;20649;-69
2022/09/29 09:45:54;;;;;;;5.93;3.55;;;;;;;12.82;95.54;94859.81;5036918;28;20190;-69
2022/09/29 09:48:26;;;;;;;6.00;3.38;;;;;;;12.89;97.92;94852.66;5036378;28;20209;-69
2022/09/29 09:50:57;;;;;;;7.38;3.60;;;;;;;12.97;96.80;94856.78;5036904;28;20316;-69
2022/09/29 09:53:29;;;;;;;5.53;3.58;;;;;;;12.98;96.53;94859.25;5036002;28;20292;-69
2022/09/29 09:56:07;;;;;;;5.38;3.05;;;;;;;13.03;97.95;94846.13;5035942;28;20224;-69
2022/09/29 09:58:54;;;;;;;5.47;3.03;;;;;;;13.01;96.63;94855.34;5036985;28;20205;-69
2022/09/29 10:01:21;;;;;;;3.83;2.70;;;;;;;12.71;97.09;94857.13;5036889;28;20209;-69
2022/09/29 10:03:47;;;;;;;4.82;2.65;;;;;;;12.79;94.40;94851.53;5035420;28;21067;-69
2022/09/29 10:06:15;;;;;;;4.45;2.58;;;;;;;12.90;94.24;94851.59;5037015;28;20207;-69
2022/09/29 10:08:42;;;;;;;3.75;2.50;;;;;;;12.72;92.44;94858.75;5036741;28;20201;-69
2022/09/29 10:11:22;;;;;;;6.88;2.58;;;;;;;12.85;91.85;94863.84;5036470;28;20225;-69
2022/09/29 10:13:54;;;;;;;4.07;2.30;;;;;;;12.62;93.71;94863.75;5036271;28;20464;-69
2022/09/29 10:16:27;;;;;;;4.15;2.90;;;;;;;12.65;95.03;94863.28;5036596;28;20709;-68
2022/09/29 10:18:54;;;;;;;4.82;2.85;;;;;;;12.53;98.51;94862.44;5036485;28;20197;-69
2022/09/29 10:21:35;;;;;;;4.85;2.35;;;;;;;12.62;97.94;94858.47;5036530;28;20335;-69
2022/09/29 10:24:05;;;;;;;6.28;2.85;;;;;;;12.62;98.96;94869.03;5035970;28;20670;-69
2022/09/29 10:26:35;;;;;;;6.40;2.78;;;;;;;12.67;100.00;94871.03;5036361;28;20661;-69
2022/09/29 10:29:04;;;;;;;3.90;2.58;;;;;;;12.65;100.00;94879.16;5036086;28;20729;-69
2022/09/29 10:31:32;;;;;;;5.00;3.10;;;;;;;12.69;100.00;94872.41;5036954;28;20209;-69
2022/09/29 10:34:02;;;;;;;6.18;2.90;;;;;;;12.65;100.00;94879.16;5035572;28;20744;-68
2022/09/29 10:36:33;;;;;;;5.68;2.90;;;;;;;12.82;97.82;94885.47;5036570;28;20217;-69
2022/09/29 10:38:59;;;;;;;6.63;2.92;;;;;;;12.79;98.75;94883.25;5036548;28;20201;-69
2022/09/29 10:41:26;;;;;;;5.22;2.95;;;;;;;12.84;99.26;94888.66;5036720;28;20205;-69
2022/09/29 10:43:52;;;;;;;5.32;3.20;;;;;;;12.75;98.36;94887.38;5035511;28;20757;-69
2022/09/29 10:46:48;;;;;;;5.45;2.80;;;;;;;13.04;100.00;94889.25;5036203;28;20205;-68
2022/09/29 10:49:17;;;;;;;16.00;5.88;;;;;;;13.00;97.36;94888.09;5022620;28;20243;-69
2022/09/29 10:51:53;;;;;;;4.88;2.47;;;;;;;13.11;94.55;94889.97;5036280;28;21547;-68
2022/09/29 10:54:24;;;;;;;13.27;5.00;;;;;;;13.09;99.82;94892.84;5039882;28;20348;-69
2022/09/29 10:56:51;;;;;;;14.55;6.53;;;;;;;12.90;100.00;94893.91;5039921;28;20584;-69
2022/09/29 10:59:19;;;;;;;5.10;3.50;;;;;;;12.96;100.00;94900.16;5039602;28;20240;-69
2022/09/29 11:01:50;;;;;;;3.63;2.35;;;;;;;12.94;98.49;94895.06;5040189;28;20197;-69
2022/09/29 11:04:21;;;;;;;5.78;2.42;;;;;;;13.05;95.78;94890.88;5039007;28;20197;-69
2022/09/29 11:06:50;;;;;;;5.30;2.22;;;;;;;12.93;95.46;94900.59;5039092;28;20202;-69
2022/09/29 11:09:29;;;;;;;3.60;1.90;;;;;;;13.06;100.00;94895.13;5039269;28;20687;-69
2022/09/29 11:11:57;;;;;;;2.47;1.70;;;;;;;12.89;98.19;94907.34;5039619;28;20231;-69
2022/09/29 11:14:25;;;;;;;3.85;1.98;;;;;;;12.88;96.82;94908.38;5038767;28;20215;-70
2022/09/29 11:16:54;;;;;;;3.22;1.85;;;;;;;12.83;98.04;94897.66;5038788;28;20234;-70
2022/09/29 11:19:20;;;;;;;2.92;2.00;;;;;;;12.77;100.00;94907.25;5039412;28;20636;-70
2022/09/29 11:22:05;;;;;;;3.88;2.40;;;;;;;12.77;100.00;94909.91;5039657;28;21159;-70
2022/09/29 11:24:54;;;;;;;5.47;2.90;;;;;;;12.48;100.00;94915.13;5038388;28;20209;-70
2022/09/29 11:27:33;;;;;;;3.67;2.35;;;;;;;12.63;100.00;94909.50;5038929;28;20568;-70
2022/09/29 11:30:03;;;;;;;5.65;2.63;;;;;;;12.47;100.00;94908.22;5037907;28;20239;-69
2022/09/29 11:32:42;;;;;;;4.83;2.73;;;;;;;12.51;100.00;94914.72;5036391;28;20205;-70
2022/09/29 11:35:39;;;;;;;5.53;3.70;;;;;;;12.52;100.00;94911.00;5039038;28;20216;-70
2022/09/29 11:38:21;;;;;;;7.95;4.28;;;;;;;12.41;100.00;94911.75;5039030;28;20232;-69
2022/09/29 11:41:04;;;;;;;7.55;4.25;;;;;;;12.52;100.00;94905.72;5038430;28;20225;-70
2022/09/29 11:43:44;;;;;;;6.22;3.97;;;;;;;12.52;100.00;94908.38;5037736;28;20205;-69
2022/09/29 11:46:43;;;;;;;7.47;3.83;;;;;;;12.45;100.00;94905.00;5039583;28;20377;-70